createdAt,value
2019-01-29T00:00:26.368Z,19.98
2019-01-29T00:03:15.083Z,17.80
2019-01-29T00:06:04.982Z,13.90
2019-01-29T00:08:54.219Z,11.68
2019-01-29T00:11:43.195Z,12.90
2019-01-29T00:14:32.353Z,11.15
2019-01-29T00:17:20.909Z,15.43
2019-01-29T00:20:11.239Z,13.48
2019-01-29T00:22:59.981Z,21.77
2019-01-29T00:25:49.844Z,15.05
2019-01-29T00:28:38.931Z,8.65
2019-01-29T00:31:28.523Z,8.05
2019-01-29T00:34:17.852Z,12.60
2019-01-29T00:37:07.018Z,12.13
2019-01-29T00:39:55.923Z,20.25
2019-01-29T00:42:45.325Z,8.70
2019-01-29T00:45:34.080Z,11.63
2019-01-29T00:48:23.590Z,13.35
2019-01-29T00:51:12.248Z,8.78
2019-01-29T00:54:01.512Z,9.35
2019-01-29T00:56:50.658Z,13.28
2019-01-29T00:59:39.570Z,13.43
2019-01-29T01:02:28.599Z,17.02
2019-01-29T01:05:18.858Z,17.35
2019-01-29T01:08:08.776Z,12.88
2019-01-29T01:10:58.106Z,18.70
2019-01-29T01:13:47.113Z,12.43
2019-01-29T01:16:36.152Z,8.88
2019-01-29T01:19:25.544Z,10.40
2019-01-29T01:22:14.861Z,16.05
2019-01-29T01:25:11.332Z,14.28
2019-01-29T01:28:00.524Z,14.30
2019-01-29T01:30:49.904Z,11.90
2019-01-29T01:33:39.159Z,11.60
2019-01-29T01:36:28.483Z,17.15
2019-01-29T01:39:17.193Z,18.12
2019-01-29T01:42:06.136Z,10.30
2019-01-29T01:44:54.971Z,8.45
2019-01-29T01:47:43.921Z,13.15
2019-01-29T01:50:33.447Z,9.83
2019-01-29T01:53:22.575Z,21.23
2019-01-29T01:56:11.990Z,11.20
2019-01-29T01:59:00.968Z,12.47
2019-01-29T02:01:50.117Z,13.30
2019-01-29T02:04:39.481Z,8.00
2019-01-29T02:07:28.557Z,6.72
2019-01-29T02:10:21.107Z,15.98
2019-01-29T02:13:10.364Z,12.85
2019-01-29T02:15:59.208Z,16.15
2019-01-29T02:18:48.291Z,16.50
2019-01-29T02:21:36.891Z,23.07
2019-01-29T02:24:26.029Z,4.40
2019-01-29T02:27:14.932Z,11.57
2019-01-29T02:30:05.687Z,9.28
2019-01-29T02:32:55.005Z,12.37
2019-01-29T02:35:44.330Z,11.38
2019-01-29T02:38:33.556Z,12.47
2019-01-29T02:41:23.068Z,10.10
2019-01-29T02:44:12.333Z,11.83
2019-01-29T02:47:01.656Z,11.85
2019-01-29T02:49:51.079Z,15.30
2019-01-29T02:52:39.849Z,13.50
2019-01-29T02:55:29.098Z,5.78
2019-01-29T02:58:18.382Z,8.18
2019-01-29T03:01:07.854Z,14.38
2019-01-29T03:03:57.490Z,7.75
2019-01-29T03:06:46.899Z,11.38
2019-01-29T03:09:35.441Z,15.13
2019-01-29T03:12:24.521Z,7.35
2019-01-29T03:15:21.765Z,10.40
2019-01-29T03:18:10.651Z,4.90
2019-01-29T03:20:59.929Z,9.65
2019-01-29T03:23:49.269Z,9.73
2019-01-29T03:26:38.311Z,13.45
2019-01-29T03:29:27.294Z,13.20
2019-01-29T06:03:58.326Z,8.83
2019-01-29T06:06:47.890Z,3.45
2019-01-29T06:09:37.001Z,8.03
2019-01-29T06:12:25.905Z,12.85
2019-01-29T06:15:22.656Z,11.00
2019-01-29T06:18:11.718Z,9.73
2019-01-29T06:21:00.576Z,11.78
2019-01-29T06:23:49.436Z,9.70
2019-01-29T06:26:38.601Z,8.20
2019-01-29T06:29:27.562Z,8.53
2019-01-29T06:32:16.727Z,8.78
2019-01-29T06:35:11.124Z,9.58
2019-01-29T06:38:00.286Z,14.60
2019-01-29T06:40:49.422Z,10.45
2019-01-29T06:43:38.941Z,7.15
2019-01-29T06:46:28.270Z,12.75
2019-01-29T06:49:17.335Z,15.72
2019-01-29T06:52:06.229Z,13.98
2019-01-29T06:54:55.388Z,11.88
2019-01-29T06:57:44.413Z,16.12
2019-01-29T07:00:33.930Z,10.00
2019-01-29T07:03:22.768Z,12.80
2019-01-29T07:06:12.051Z,21.30
2019-01-29T07:09:01.030Z,9.65
2019-01-29T08:50:13.310Z,6.80
2019-01-29T08:53:02.170Z,9.75
2019-01-29T08:55:52.060Z,10.10
2019-01-29T08:58:41.853Z,12.40
2019-01-29T09:01:31.213Z,12.03
2019-01-29T09:04:20.162Z,8.15
2019-01-29T09:07:09.499Z,9.63
2019-01-29T09:09:58.541Z,13.32
2019-01-29T09:12:47.677Z,10.50
2019-01-29T09:15:36.839Z,9.73
2019-01-29T09:18:25.494Z,10.63
2019-01-29T09:21:14.465Z,9.00
2019-01-29T09:24:03.934Z,14.68
2019-01-29T09:26:53.034Z,7.60
2019-01-29T09:29:42.368Z,8.35
2019-01-29T09:32:31.858Z,12.03
2019-01-29T09:35:20.904Z,12.30
2019-01-29T09:38:10.069Z,12.82
2019-01-29T09:40:59.498Z,10.63
2019-01-29T09:43:48.715Z,10.05
2019-01-29T09:46:38.217Z,10.90
2019-01-29T09:49:27.867Z,5.20
2019-01-29T09:52:16.952Z,7.28
2019-01-29T09:55:13.746Z,9.75
2019-01-29T09:58:02.588Z,19.37
2019-01-29T10:00:51.399Z,9.45
2019-01-29T10:03:40.632Z,11.20
2019-01-29T10:06:29.323Z,16.60
2019-01-29T10:09:18.428Z,12.53
2019-01-29T10:12:08.161Z,8.75
2019-01-29T10:14:57.338Z,10.45
2019-01-29T10:17:46.535Z,7.80
2019-01-29T10:20:35.766Z,10.90
2019-01-29T10:23:24.471Z,15.78
2019-01-29T10:26:13.384Z,8.75
2019-01-29T10:29:02.885Z,9.15
2019-01-29T10:31:51.822Z,11.10
2019-01-29T10:34:41.011Z,8.48
2019-01-29T10:37:30.161Z,12.75
2019-01-29T10:40:27.007Z,8.43
2019-01-29T10:43:15.889Z,5.97
2019-01-29T10:46:04.724Z,9.73
2019-01-29T10:48:53.721Z,6.67
2019-01-29T10:51:43.055Z,7.67
2019-01-29T10:54:31.680Z,8.15
2019-01-29T10:57:21.394Z,9.08
2019-01-29T11:00:29.340Z,8.40
2019-01-29T11:03:18.570Z,7.00
2019-01-29T11:06:07.556Z,10.40
2019-01-29T11:08:56.350Z,6.65
2019-01-29T11:11:45.681Z,5.33
2019-01-29T11:14:34.809Z,10.48
2019-01-29T11:17:23.894Z,7.55
2019-01-29T11:20:16.423Z,10.88
2019-01-29T11:23:06.532Z,10.45
2019-01-29T11:25:55.953Z,8.35
2019-01-29T11:28:45.883Z,13.53
2019-01-29T11:31:34.388Z,11.18
2019-01-29T11:34:23.397Z,11.03
2019-01-29T11:37:12.256Z,10.45
2019-01-29T11:40:01.118Z,14.78
2019-01-29T11:42:50.443Z,13.43
2019-01-29T11:45:47.215Z,9.85
2019-01-29T11:48:36.290Z,9.33
2019-01-29T11:51:25.466Z,15.83
2019-01-29T11:54:14.789Z,16.95
2019-01-29T11:57:03.798Z,8.63
2019-01-29T11:59:53.458Z,10.25
2019-01-29T12:02:42.745Z,8.75
2019-01-29T12:05:31.985Z,8.70
2019-01-29T12:08:21.136Z,10.05
2019-01-29T12:11:09.925Z,9.10
2019-01-29T12:13:59.460Z,7.58
2019-01-29T12:16:48.851Z,12.10
2019-01-29T12:19:37.554Z,20.43
2019-01-29T12:22:26.784Z,12.10
2019-01-29T12:25:16.392Z,11.88
2019-01-29T12:28:06.345Z,12.23
2019-01-29T12:30:55.240Z,9.23
2019-01-29T12:33:44.389Z,12.70
2019-01-29T12:36:33.575Z,12.90
2019-01-29T12:39:22.692Z,17.50
2019-01-29T12:42:12.009Z,14.07
2019-01-29T12:45:01.199Z,15.35
2019-01-29T12:47:50.443Z,9.95
2019-01-29T12:50:41.384Z,27.62
2019-01-29T12:53:30.083Z,16.37
2019-01-29T12:56:21.545Z,15.78
2019-01-29T12:59:09.824Z,19.17
2019-01-29T13:01:59.143Z,15.93
2019-01-29T13:04:48.026Z,17.48
2019-01-29T13:07:37.479Z,12.63
2019-01-29T13:10:27.273Z,16.10
2019-01-29T13:13:17.147Z,17.95
2019-01-29T13:16:06.222Z,13.40
2019-01-29T13:18:55.216Z,13.35
2019-01-29T13:21:44.318Z,18.82
2019-01-29T13:24:33.914Z,16.52
2019-01-29T13:27:23.372Z,14.85
2019-01-29T13:30:28.849Z,17.00
2019-01-29T13:33:18.469Z,19.15
2019-01-29T13:36:08.276Z,16.60
2019-01-29T13:38:57.328Z,19.42
2019-01-29T13:41:46.532Z,18.55
2019-01-29T13:44:35.912Z,17.73
2019-01-29T13:47:24.866Z,16.35
2019-01-29T13:50:33.081Z,18.17
2019-01-29T13:53:22.230Z,19.60
2019-01-29T13:56:11.311Z,15.10
2019-01-29T13:59:00.253Z,21.05
2019-01-29T14:01:49.127Z,16.52
2019-01-29T14:04:37.962Z,15.43
2019-01-29T14:07:26.600Z,14.68
2019-01-29T14:10:17.176Z,16.12
2019-01-29T14:13:06.685Z,23.85
2019-01-29T14:15:56.000Z,17.85
2019-01-29T14:18:45.476Z,17.95
2019-01-29T14:21:34.596Z,13.95
2019-01-29T14:24:24.016Z,16.75
2019-01-29T14:27:13.288Z,19.60
2019-01-29T14:30:03.664Z,18.80
2019-01-29T14:32:53.357Z,22.32
2019-01-29T14:35:42.515Z,15.90
2019-01-29T14:38:50.637Z,15.80
2019-01-29T14:41:39.575Z,16.40
2019-01-29T14:44:28.438Z,21.23
2019-01-29T14:47:17.734Z,15.13
2019-01-29T14:50:11.598Z,15.53
2019-01-29T14:53:01.115Z,15.90
2019-01-29T14:55:50.212Z,20.75
2019-01-29T14:58:39.311Z,13.90
2019-01-29T15:01:28.942Z,21.33
2019-01-29T15:04:18.068Z,19.25
2019-01-29T15:07:06.982Z,18.62
2019-01-29T15:09:56.397Z,15.18
2019-01-29T15:12:45.534Z,14.65
2019-01-29T15:15:46.204Z,18.70
2019-01-29T15:18:37.295Z,11.48
2019-01-29T15:21:26.889Z,21.62
2019-01-29T15:24:16.256Z,13.65
2019-01-29T15:27:06.166Z,18.98
2019-01-29T15:29:55.917Z,12.28
2019-01-29T15:32:45.373Z,12.50
2019-01-29T15:35:34.863Z,16.32
2019-01-29T15:38:24.044Z,12.75
2019-01-29T15:41:13.527Z,13.05
2019-01-29T15:44:02.848Z,13.70
2019-01-29T15:46:51.640Z,19.48
2019-01-29T15:49:40.750Z,19.23
2019-01-29T15:52:30.091Z,16.40
2019-01-29T15:55:20.002Z,12.82
2019-01-29T15:58:09.636Z,19.75
2019-01-29T16:00:58.690Z,14.80
2019-01-29T16:03:47.981Z,20.37
2019-01-29T16:06:36.909Z,22.05
2019-01-29T16:09:25.588Z,19.45
2019-01-29T16:12:14.967Z,22.58
2019-01-29T16:15:06.368Z,19.32
2019-01-29T16:17:55.952Z,14.40
2019-01-29T16:20:45.236Z,24.12
2019-01-29T16:23:34.809Z,16.85
2019-01-29T16:26:23.794Z,22.22
2019-01-29T16:29:13.234Z,23.38
2019-01-29T16:32:02.705Z,19.77
2019-01-29T16:34:51.462Z,26.85
2019-01-29T16:37:40.350Z,24.50
2019-01-29T16:40:33.899Z,41.85
2019-01-29T16:43:23.377Z,27.13
2019-01-29T16:46:12.408Z,30.62
2019-01-29T16:49:01.395Z,21.50
2019-01-29T16:51:50.660Z,21.40
2019-01-29T16:54:39.534Z,28.65
2019-01-29T16:57:31.701Z,25.48
2019-01-29T17:00:30.154Z,27.45
2019-01-29T17:03:19.269Z,28.30
2019-01-29T17:06:08.689Z,25.82
2019-01-29T17:08:57.978Z,26.20
2019-01-29T17:11:47.345Z,27.37
2019-01-29T17:14:36.683Z,31.15
2019-01-29T17:17:26.051Z,29.85
2019-01-29T17:20:42.381Z,28.30
2019-01-29T17:23:31.440Z,24.52
2019-01-29T17:26:20.095Z,34.20
2019-01-29T17:29:09.373Z,21.07
2019-01-29T17:31:58.429Z,32.75
2019-01-29T17:34:47.484Z,25.00
2019-01-29T17:37:36.970Z,24.23
2019-01-29T17:40:26.943Z,23.20
2019-01-29T17:43:16.489Z,28.90
2019-01-29T17:46:06.006Z,26.17
2019-01-29T17:48:55.111Z,26.82
2019-01-29T17:51:44.654Z,27.07
2019-01-29T17:54:33.941Z,23.98
2019-01-29T17:57:23.698Z,25.48
2019-01-29T18:00:21.099Z,27.95
2019-01-29T18:03:11.272Z,23.87
2019-01-29T18:06:00.075Z,24.52
2019-01-29T18:08:49.811Z,26.50
2019-01-29T18:11:38.790Z,24.60
2019-01-29T18:14:27.306Z,29.65
2019-01-29T18:17:16.467Z,24.03
2019-01-29T18:20:07.878Z,35.58
2019-01-29T18:22:56.645Z,32.78
2019-01-29T18:25:45.371Z,30.25
2019-01-29T18:28:34.681Z,25.85
2019-01-29T18:31:23.424Z,22.80
2019-01-29T18:34:12.906Z,26.75
2019-01-29T18:37:02.309Z,39.42
2019-01-29T18:39:51.956Z,34.43
2019-01-29T18:42:41.473Z,32.50
2019-01-29T18:45:30.096Z,27.98
2019-01-29T18:48:19.253Z,31.50
2019-01-29T18:51:08.255Z,37.80
2019-01-29T18:53:57.281Z,31.57
2019-01-29T18:56:46.036Z,29.90
2019-01-29T18:59:34.798Z,33.85
2019-01-29T19:02:23.934Z,27.27
2019-01-29T19:05:15.336Z,31.27
2019-01-29T19:08:05.220Z,26.25
2019-01-29T19:10:54.190Z,31.23
2019-01-29T19:13:43.718Z,35.92
2019-01-29T19:16:32.864Z,26.73
2019-01-29T19:19:22.248Z,27.65
2019-01-29T19:22:11.088Z,26.30
2019-01-29T19:25:00.310Z,34.05
2019-01-29T19:27:50.041Z,31.73
2019-01-29T19:30:39.460Z,44.30
2019-01-29T19:33:28.691Z,41.48
2019-01-29T19:36:17.814Z,41.73
2019-01-29T19:39:09.432Z,39.85
2019-01-29T19:41:58.496Z,34.20
2019-01-29T19:44:48.127Z,27.48
2019-01-29T19:47:37.220Z,37.47
2019-01-29T19:50:31.707Z,33.90
2019-01-29T19:53:20.661Z,32.35
2019-01-29T19:56:09.600Z,33.75
2019-01-29T19:58:58.871Z,34.65
2019-01-29T20:01:47.994Z,38.95
2019-01-29T20:04:36.997Z,34.98
2019-01-29T20:07:25.495Z,40.90
2019-01-29T20:10:20.766Z,36.03
2019-01-29T20:13:10.024Z,37.70
2019-01-29T20:15:59.508Z,41.58
2019-01-29T20:18:49.127Z,41.13
2019-01-29T20:21:38.473Z,38.17
2019-01-29T20:24:27.516Z,35.80
2019-01-29T20:27:16.867Z,45.90
2019-01-29T20:30:19.384Z,37.90
2019-01-29T20:33:08.692Z,39.00
2019-01-29T20:35:58.012Z,40.08
2019-01-29T20:38:47.628Z,40.33
2019-01-29T20:41:36.895Z,39.83
2019-01-29T20:44:26.226Z,43.28
2019-01-29T20:47:15.851Z,34.73
2019-01-29T20:50:13.680Z,38.70
2019-01-29T20:53:02.231Z,32.53
2019-01-29T20:55:51.085Z,48.00
2019-01-29T20:58:40.880Z,34.23
2019-01-29T21:01:30.207Z,35.60
2019-01-29T21:04:20.023Z,36.73
2019-01-29T21:07:09.099Z,42.17
2019-01-29T21:09:58.562Z,42.62
2019-01-29T21:12:47.847Z,53.48
2019-01-29T21:15:38.630Z,33.77
2019-01-29T21:18:34.661Z,46.05
2019-01-29T21:21:24.036Z,44.15
2019-01-29T21:24:13.508Z,42.98
2019-01-29T21:27:02.495Z,40.33
2019-01-29T21:29:51.871Z,38.55
2019-01-29T21:32:41.154Z,38.15
2019-01-29T21:35:30.595Z,38.73
2019-01-29T21:38:19.551Z,36.55
2019-01-29T21:41:08.351Z,37.05
2019-01-29T21:43:57.297Z,44.55
2019-01-29T21:46:46.546Z,40.10
2019-01-29T21:49:35.193Z,42.60
2019-01-29T21:52:24.279Z,47.90
2019-01-29T21:55:16.193Z,35.15
2019-01-29T21:58:05.988Z,41.10
2019-01-29T22:00:55.548Z,39.60
2019-01-29T22:03:44.823Z,46.45
2019-01-29T22:06:34.117Z,34.98
2019-01-29T22:09:23.345Z,41.05
2019-01-29T22:12:12.732Z,39.50
2019-01-29T22:15:02.042Z,37.93
2019-01-29T22:17:51.336Z,51.45
2019-01-29T22:20:40.334Z,47.78
2019-01-29T22:23:29.072Z,36.77
2019-01-29T22:26:18.767Z,47.73
2019-01-29T22:29:07.819Z,37.45
2019-01-29T22:31:57.206Z,49.10
2019-01-29T22:34:46.781Z,43.50
2019-01-29T22:37:35.768Z,36.90
2019-01-29T22:40:31.262Z,33.83
2019-01-29T22:43:20.013Z,38.58
2019-01-29T22:46:09.277Z,39.45
2019-01-29T22:48:58.122Z,38.40
2019-01-29T22:51:47.316Z,35.65
2019-01-29T22:54:36.435Z,39.95
2019-01-29T22:57:25.980Z,43.08
2019-01-29T23:00:44.348Z,36.08
2019-01-29T23:03:41.016Z,38.25
2019-01-29T23:06:37.396Z,39.95
2019-01-29T23:09:26.248Z,39.38
2019-01-29T23:12:15.720Z,44.38
2019-01-29T23:15:08.080Z,43.20
2019-01-29T23:17:57.022Z,38.98
2019-01-29T23:20:46.154Z,39.17
2019-01-29T23:23:35.458Z,52.80
2019-01-29T23:26:24.932Z,44.25
2019-01-29T23:29:13.940Z,45.05
2019-01-29T23:32:03.167Z,56.75
2019-01-29T23:34:52.256Z,47.17
2019-01-29T23:37:41.708Z,37.85
2019-01-29T23:40:30.279Z,46.98
2019-01-29T23:43:19.300Z,44.13
2019-01-29T23:46:08.558Z,43.48
2019-01-29T23:48:58.065Z,53.23
2019-01-29T23:51:46.895Z,43.17
2019-01-29T23:54:36.192Z,36.68
2019-01-29T23:57:25.084Z,47.27
